Terminal Aerodrome Forecast
Issued by NWS

Home | Current Version | Previous Version | Text Only | Print | Product List | Glossary On
Versions: 1 2 3 4 5 6 7 8 9 10 11 12 13 14 15 16 17 18 19 20 21 22 23 24 25 26 27 28 29 30 31 32 33
000
FTUS44 KMOB 231700
TAFBFM
TAF
KBFM 231734Z 2318/2418 12005KT P6SM VCTS SCT020CB
      TEMPO 2320/2324 5SM TSRA BKN030CB OVC100
     FM240200 VRB03KT P6SM VCTS BKN030CB BKN250=

USA.gov is the U.S. government's official web portal to all federal, state and local government web resources and services.